createdAt,value
2023-05-10T00:01:39.305Z,20.33
2023-05-10T00:04:07.909Z,17.27
2023-05-10T00:06:36.377Z,19.13
2023-05-10T00:09:04.880Z,17.23
2023-05-10T00:11:34.760Z,20.70
2023-05-10T00:14:03.220Z,17.17
2023-05-10T00:16:31.799Z,22.13
2023-05-10T00:19:00.255Z,21.17
2023-05-10T00:21:29.541Z,24.65
2023-05-10T00:23:57.988Z,19.55
2023-05-10T00:26:26.359Z,18.90
2023-05-10T00:28:59.672Z,20.27
2023-05-10T00:31:28.650Z,19.40
2023-05-10T00:33:57.371Z,18.83
2023-05-10T00:36:25.978Z,21.45
2023-05-10T00:38:54.428Z,18.48
2023-05-10T00:41:23.210Z,18.08
2023-05-10T00:43:51.978Z,24.52
2023-05-10T00:46:22.595Z,29.63
2023-05-10T00:48:51.409Z,21.20
2023-05-10T00:51:19.987Z,15.35
2023-05-10T00:53:48.726Z,22.80
2023-05-10T00:56:17.704Z,16.63
2023-05-10T00:58:46.260Z,23.73
2023-05-10T01:01:15.381Z,21.75
2023-05-10T01:03:45.943Z,17.95
2023-05-10T01:06:14.735Z,15.60
2023-05-10T01:08:43.256Z,21.48
2023-05-10T01:11:12.141Z,18.50
2023-05-10T01:16:09.704Z,21.48
2023-05-10T01:18:42.454Z,21.90
2023-05-10T01:21:21.871Z,24.13
2023-05-10T01:24:33.437Z,20.15
2023-05-10T01:27:32.647Z,17.40
2023-05-10T01:30:46.988Z,19.48
2023-05-10T01:33:21.385Z,21.25
2023-05-10T01:35:55.903Z,17.20
2023-05-10T01:38:32.241Z,15.60
2023-05-10T01:41:15.309Z,15.18
2023-05-10T01:43:50.962Z,17.13
2023-05-10T01:46:27.053Z,17.50
2023-05-10T01:49:00.147Z,24.00
2023-05-10T01:51:47.370Z,17.02
2023-05-10T01:54:17.568Z,21.48
2023-05-10T01:56:47.832Z,13.80
2023-05-10T01:59:20.555Z,18.33
2023-05-10T02:01:51.172Z,18.08
2023-05-10T02:04:24.392Z,19.60
2023-05-10T02:06:55.210Z,16.48
2023-05-10T02:09:23.976Z,18.13
2023-05-10T02:11:52.833Z,13.88
2023-05-10T02:14:22.361Z,14.63
2023-05-10T02:16:53.149Z,15.82
2023-05-10T02:19:25.844Z,14.68
2023-05-10T02:22:15.213Z,18.15
2023-05-10T02:24:44.398Z,15.27
2023-05-10T02:27:14.657Z,16.40
2023-05-10T02:29:44.807Z,17.50
2023-05-10T02:32:14.822Z,17.33
2023-05-10T02:34:46.848Z,16.67
2023-05-10T02:37:19.520Z,18.13
2023-05-10T02:39:49.345Z,17.73
2023-05-10T02:42:20.467Z,19.85
2023-05-10T02:44:51.054Z,21.08
2023-05-10T02:47:20.720Z,14.73
2023-05-10T02:49:51.864Z,13.10
2023-05-10T02:52:25.698Z,12.50
2023-05-10T02:54:58.000Z,17.77
2023-05-10T02:57:30.879Z,14.32
2023-05-10T02:59:59.610Z,17.63
2023-05-10T03:02:28.091Z,15.32
2023-05-10T03:04:58.235Z,14.43
2023-05-10T03:07:27.283Z,18.15
2023-05-10T03:09:58.576Z,16.30
2023-05-10T03:12:43.141Z,18.00
2023-05-10T03:15:23.773Z,17.05
2023-05-10T03:17:58.590Z,17.90
2023-05-10T03:20:37.791Z,12.13
2023-05-10T03:23:14.896Z,18.40
2023-05-10T03:25:45.769Z,18.50
2023-05-10T03:28:16.668Z,16.92
2023-05-10T03:30:47.234Z,12.95
2023-05-10T03:33:15.999Z,14.20
2023-05-10T03:35:48.910Z,19.25
2023-05-10T03:38:18.170Z,13.52
2023-05-10T03:40:46.738Z,14.15
2023-05-10T03:43:15.274Z,15.52
2023-05-10T03:45:44.341Z,18.30
2023-05-10T03:48:14.745Z,16.65
2023-05-10T03:50:44.025Z,16.38
2023-05-10T03:55:42.827Z,15.88
2023-05-10T03:58:13.514Z,18.50
2023-05-10T04:00:44.895Z,16.52
2023-05-10T04:03:14.776Z,17.92
2023-05-10T04:05:43.314Z,16.05
2023-05-10T04:08:13.243Z,13.85
2023-05-10T04:10:41.852Z,19.13
2023-05-10T04:13:10.248Z,18.60
2023-05-10T04:15:38.709Z,15.00
2023-05-10T04:18:08.835Z,18.10
2023-05-10T04:20:37.493Z,12.80
2023-05-10T04:23:05.903Z,16.88
2023-05-10T04:25:37.790Z,19.85
2023-05-10T04:28:06.555Z,13.75
2023-05-10T04:30:35.012Z,18.20
2023-05-10T04:33:03.682Z,20.08
2023-05-10T04:35:32.112Z,23.38
2023-05-10T04:38:00.544Z,14.52
2023-05-10T04:40:29.080Z,23.95
2023-05-10T04:42:58.993Z,19.73
2023-05-10T04:45:27.437Z,20.15
2023-05-10T04:47:55.853Z,21.83
2023-05-10T04:50:24.390Z,24.52
2023-05-10T04:52:53.426Z,15.52
2023-05-10T04:55:22.190Z,19.70
2023-05-10T04:57:50.687Z,18.95
2023-05-10T05:00:21.691Z,17.45
2023-05-10T05:02:50.956Z,14.90
2023-05-10T05:05:19.478Z,14.05
2023-05-10T05:07:48.005Z,13.18
2023-05-10T05:10:16.648Z,14.73
2023-05-10T05:12:48.810Z,15.02
2023-05-10T05:15:17.870Z,12.57
2023-05-10T05:17:47.870Z,17.65
2023-05-10T05:20:16.866Z,10.57
2023-05-10T05:22:45.584Z,9.10
2023-05-10T05:25:14.099Z,8.93
2023-05-10T05:27:42.539Z,10.77
2023-05-10T05:30:12.295Z,12.63
2023-05-10T05:32:40.953Z,9.52
2023-05-10T05:35:11.292Z,9.05
2023-05-10T05:37:39.819Z,10.50
2023-05-10T05:40:09.334Z,10.02
2023-05-10T05:42:37.783Z,7.78
2023-05-10T05:45:06.798Z,7.53
2023-05-10T05:47:35.642Z,7.05
2023-05-10T05:52:33.641Z,7.03
2023-05-10T05:55:02.143Z,7.85
2023-05-10T05:57:32.594Z,7.70
2023-05-10T06:00:01.198Z,10.05
2023-05-10T06:02:29.816Z,9.52
2023-05-10T06:04:58.541Z,8.43
2023-05-10T06:07:27.025Z,9.70
2023-05-10T06:09:56.865Z,7.07
2023-05-10T06:12:25.303Z,6.53
2023-05-10T06:14:53.801Z,7.55
2023-05-10T06:17:22.817Z,4.28
2023-05-10T06:22:19.742Z,11.45
2023-05-10T06:24:48.124Z,6.00
2023-05-10T06:27:18.381Z,9.93
2023-05-10T06:29:47.035Z,4.50
2023-05-10T06:32:15.437Z,6.68
2023-05-10T06:34:44.548Z,8.13
2023-05-10T06:37:12.983Z,5.63
2023-05-10T06:39:41.516Z,5.88
2023-05-10T06:42:09.952Z,5.53
2023-05-10T06:44:39.813Z,8.20
2023-05-10T06:47:08.274Z,5.55
2023-05-10T06:49:36.750Z,10.70
2023-05-10T06:52:05.239Z,5.90
2023-05-10T06:54:33.678Z,3.40
2023-05-10T06:57:05.850Z,4.47
2023-05-10T06:59:37.488Z,6.70
2023-05-10T07:02:07.852Z,4.30
2023-05-10T07:04:36.450Z,5.05
2023-05-10T07:07:04.928Z,5.25
2023-05-10T07:09:33.385Z,5.55
2023-05-10T07:12:02.861Z,3.85
2023-05-10T07:14:31.345Z,9.13
2023-05-10T07:16:59.753Z,6.55
2023-05-10T07:19:30.511Z,9.98
2023-05-10T07:21:58.998Z,7.47
2023-05-10T07:24:27.637Z,4.70
2023-05-10T07:26:56.098Z,5.00
2023-05-10T07:29:24.477Z,5.85
2023-05-10T07:31:52.990Z,4.28
2023-05-10T07:34:21.507Z,4.30
2023-05-10T07:36:51.353Z,6.10
2023-05-10T07:39:26.523Z,5.88
2023-05-10T07:41:56.730Z,5.93
2023-05-10T07:46:53.375Z,3.97
2023-05-10T07:49:22.018Z,9.23
2023-05-10T07:51:52.026Z,3.50
2023-05-10T07:54:20.470Z,4.35
2023-05-10T07:59:18.686Z,9.50
2023-05-10T08:01:47.479Z,4.97
2023-05-10T08:06:44.633Z,6.95
2023-05-10T08:09:14.502Z,6.85
2023-05-10T08:11:42.982Z,5.53
2023-05-10T08:14:11.357Z,6.35
2023-05-10T08:16:39.834Z,8.85
2023-05-10T08:19:08.397Z,5.70
2023-05-10T08:21:36.903Z,11.98
2023-05-10T08:24:05.992Z,3.08
2023-05-10T08:26:36.285Z,2.92
2023-05-10T08:29:05.039Z,5.88
2023-05-10T08:31:33.472Z,2.47
2023-05-10T08:34:02.208Z,4.45
2023-05-10T08:36:31.009Z,2.45
2023-05-10T08:38:59.491Z,4.40
2023-05-10T08:41:28.031Z,4.85
2023-05-10T08:43:58.037Z,3.00
2023-05-10T08:46:26.544Z,6.78
2023-05-10T08:48:57.057Z,5.70
2023-05-10T08:51:27.913Z,3.00
2023-05-10T08:53:57.076Z,2.80
2023-05-10T08:56:26.197Z,4.25
2023-05-10T08:58:54.816Z,4.88
2023-05-10T09:01:25.495Z,2.85
2023-05-10T09:03:54.688Z,3.92
2023-05-10T09:06:23.497Z,3.17
2023-05-10T09:11:22.204Z,2.83
2023-05-10T09:13:53.014Z,3.63
2023-05-10T09:16:22.569Z,2.97
2023-05-10T09:18:52.596Z,3.75
2023-05-10T09:21:22.734Z,4.38
2023-05-10T09:23:55.176Z,3.65
2023-05-10T09:26:26.843Z,4.97
2023-05-10T09:28:57.228Z,2.65
2023-05-10T09:31:26.915Z,6.20
2023-05-10T09:33:56.790Z,4.43
2023-05-10T09:36:25.126Z,3.67
2023-05-10T09:38:54.685Z,3.83
2023-05-10T09:41:25.076Z,4.05
2023-05-10T09:43:58.075Z,3.72
2023-05-10T09:46:27.174Z,4.35
2023-05-10T09:48:57.010Z,3.10
2023-05-10T09:51:27.976Z,2.92
2023-05-10T09:54:12.918Z,3.28
2023-05-10T09:56:41.764Z,4.28
2023-05-10T10:01:39.494Z,4.43
2023-05-10T10:04:11.939Z,5.78
2023-05-10T10:06:41.004Z,4.65
2023-05-10T10:09:10.010Z,4.43
2023-05-10T10:11:40.899Z,4.47
2023-05-10T10:14:09.423Z,5.20
2023-05-10T10:16:45.841Z,4.57
2023-05-10T10:19:22.628Z,5.57
2023-05-10T10:21:52.315Z,4.45
2023-05-10T10:24:20.861Z,5.03
2023-05-10T10:26:50.588Z,6.28
2023-05-10T10:29:26.049Z,4.22
2023-05-10T10:32:03.544Z,3.75
2023-05-10T10:34:34.259Z,5.90
2023-05-10T10:37:07.797Z,4.30
2023-05-10T10:39:37.910Z,5.47
2023-05-10T10:42:07.261Z,3.70
2023-05-10T10:44:41.449Z,5.10
2023-05-10T10:47:28.526Z,3.15
2023-05-10T10:50:07.888Z,4.28
2023-05-10T10:52:37.644Z,3.53
2023-05-10T10:55:09.469Z,7.30
2023-05-10T10:57:48.162Z,4.47
2023-05-10T11:00:29.361Z,3.40
2023-05-10T11:03:02.162Z,7.10
2023-05-10T11:05:50.497Z,6.22
2023-05-10T11:08:23.058Z,7.88
2023-05-10T11:10:54.041Z,4.63
2023-05-10T11:13:31.701Z,5.53
2023-05-10T11:16:00.847Z,4.63
2023-05-10T11:18:31.590Z,4.07
2023-05-10T11:21:04.331Z,4.72
2023-05-10T11:23:34.576Z,2.95
2023-05-10T11:26:03.434Z,3.55
2023-05-10T11:31:00.496Z,4.85
2023-05-10T11:33:28.945Z,3.50
2023-05-10T11:35:57.307Z,6.13
2023-05-10T11:38:27.095Z,3.72
2023-05-10T11:40:55.822Z,5.15
2023-05-10T11:45:55.243Z,7.90
2023-05-10T11:48:25.062Z,6.63
2023-05-10T11:50:53.922Z,2.95
2023-05-10T11:55:54.570Z,5.57
2023-05-10T11:58:24.467Z,5.63
2023-05-10T12:00:53.147Z,7.03
2023-05-10T12:03:21.902Z,4.80
2023-05-10T12:08:24.084Z,5.40
2023-05-10T12:10:54.598Z,5.03
2023-05-10T12:13:23.563Z,2.95
2023-05-10T12:15:52.703Z,5.25
2023-05-10T12:18:25.981Z,5.43
2023-05-10T12:20:55.288Z,3.20
2023-05-10T12:23:23.760Z,4.53
2023-05-10T12:25:55.052Z,4.63
2023-05-10T12:28:24.962Z,4.95
2023-05-10T12:30:56.358Z,5.63
2023-05-10T12:33:24.907Z,5.47
2023-05-10T12:35:54.995Z,3.45
2023-05-10T12:38:31.949Z,5.80
2023-05-10T12:41:01.755Z,5.38
2023-05-10T12:43:32.133Z,5.70
2023-05-10T12:46:00.634Z,4.40
2023-05-10T12:48:29.836Z,5.88
2023-05-10T12:50:58.202Z,3.65
2023-05-10T12:53:26.903Z,3.67
2023-05-10T12:58:34.953Z,4.15
2023-05-10T13:01:07.739Z,4.25
2023-05-10T13:03:36.189Z,4.05
2023-05-10T13:06:04.602Z,5.07
2023-05-10T13:08:34.787Z,4.10
2023-05-10T13:11:04.563Z,4.95
2023-05-10T13:13:35.547Z,5.35
2023-05-10T13:16:05.627Z,6.32
2023-05-10T13:18:34.326Z,6.47
2023-05-10T13:21:04.985Z,6.10
2023-05-10T13:23:33.518Z,5.68
2023-05-10T13:26:01.926Z,3.90
2023-05-10T13:28:31.272Z,7.82
2023-05-10T13:31:01.140Z,3.45
2023-05-10T13:33:31.103Z,5.15
2023-05-10T13:35:59.651Z,4.38
2023-05-10T13:38:28.058Z,3.40
2023-05-10T13:40:56.588Z,6.82
2023-05-10T13:43:26.005Z,4.05
2023-05-10T13:45:54.516Z,4.93
2023-05-10T13:48:23.028Z,4.57
2023-05-10T13:50:52.932Z,5.45
2023-05-10T13:53:21.356Z,5.13
2023-05-10T13:58:36.609Z,8.65
2023-05-10T14:01:06.076Z,3.30
2023-05-10T14:03:34.846Z,4.90
2023-05-10T14:08:33.313Z,6.78
2023-05-10T14:11:01.758Z,5.47
2023-05-10T14:13:30.225Z,6.55
2023-05-10T14:15:59.910Z,4.15
2023-05-10T14:18:28.775Z,5.15
2023-05-10T14:20:57.490Z,4.47
2023-05-10T14:25:55.754Z,4.28
2023-05-10T14:28:24.756Z,4.60
2023-05-10T14:30:53.305Z,3.25
2023-05-10T14:33:21.901Z,5.43
2023-05-10T14:35:50.661Z,5.63
2023-05-10T14:38:19.149Z,4.80
2023-05-10T14:40:48.902Z,5.43
2023-05-10T14:43:17.486Z,4.53
2023-05-10T14:45:46.448Z,4.32
2023-05-10T14:48:17.209Z,5.65
2023-05-10T14:50:45.812Z,3.50
2023-05-10T14:53:14.386Z,5.93
2023-05-10T14:55:43.083Z,4.40
2023-05-10T14:58:13.113Z,3.70
2023-05-10T15:00:41.557Z,3.28
2023-05-10T15:05:39.606Z,5.47
2023-05-10T15:08:08.058Z,4.88
2023-05-10T15:10:36.657Z,6.30
2023-05-10T15:13:06.418Z,4.45
2023-05-10T15:15:36.356Z,3.65
2023-05-10T15:18:05.739Z,4.22
2023-05-10T15:20:34.305Z,3.85
2023-05-10T15:23:05.012Z,6.10
2023-05-10T15:25:35.929Z,5.97
2023-05-10T15:28:04.590Z,5.00
2023-05-10T15:30:33.168Z,3.90
2023-05-10T15:33:03.399Z,2.33
2023-05-10T15:35:31.965Z,4.35
2023-05-10T15:38:00.410Z,6.30
2023-05-10T15:40:28.960Z,10.75
2023-05-10T15:42:57.458Z,5.38
2023-05-10T15:45:25.847Z,4.60
2023-05-10T15:47:54.404Z,5.50
2023-05-10T15:50:27.783Z,2.95
2023-05-10T15:52:56.362Z,5.32
2023-05-10T15:55:26.495Z,4.57
2023-05-10T15:57:55.060Z,4.93
2023-05-10T16:00:23.489Z,9.60
2023-05-10T16:02:54.199Z,4.32
2023-05-10T16:05:24.920Z,5.20
2023-05-10T16:07:59.957Z,4.68
2023-05-10T16:10:29.539Z,3.90
2023-05-10T16:12:58.023Z,6.47
2023-05-10T16:15:29.754Z,5.18
2023-05-10T16:17:58.412Z,4.88
2023-05-10T16:23:04.611Z,9.30
2023-05-10T16:25:33.762Z,5.38
2023-05-10T16:28:02.816Z,8.18
2023-05-10T16:30:31.346Z,8.25
2023-05-10T16:33:02.012Z,9.52
2023-05-10T16:35:30.729Z,5.85
2023-05-10T16:38:04.097Z,6.80
2023-05-10T16:40:32.651Z,6.00
2023-05-10T16:43:01.505Z,5.85
2023-05-10T16:48:02.948Z,6.05
2023-05-10T16:50:31.492Z,5.93
2023-05-10T16:53:03.268Z,5.05
2023-05-10T16:55:32.196Z,4.90
2023-05-10T16:58:01.076Z,6.15
2023-05-10T17:02:58.334Z,4.45
2023-05-10T17:05:28.335Z,5.25
2023-05-10T17:07:59.946Z,3.05
2023-05-10T17:10:30.061Z,3.60
2023-05-10T17:12:58.554Z,3.50
2023-05-10T17:15:28.224Z,3.78
2023-05-10T17:17:57.781Z,4.82
2023-05-10T17:20:26.800Z,5.57
2023-05-10T17:22:58.195Z,6.03
2023-05-10T17:25:30.576Z,3.25
2023-05-10T17:28:03.412Z,4.18
2023-05-10T17:30:32.908Z,3.85
2023-05-10T17:33:03.871Z,4.93
2023-05-10T17:35:35.604Z,5.90
2023-05-10T17:38:04.168Z,6.72
2023-05-10T17:40:44.339Z,5.57
2023-05-10T17:43:43.297Z,3.75
2023-05-10T17:46:13.076Z,10.68
2023-05-10T17:48:45.439Z,5.00
2023-05-10T17:51:16.033Z,7.10
2023-05-10T17:53:47.149Z,3.75
2023-05-10T17:56:17.578Z,4.20
2023-05-10T17:58:51.243Z,9.35
2023-05-10T18:01:21.714Z,10.45
2023-05-10T18:03:53.726Z,13.25
2023-05-10T18:06:28.073Z,9.30
2023-05-10T18:08:57.111Z,11.68
2023-05-10T18:14:00.075Z,7.40
2023-05-10T18:16:29.093Z,8.50
2023-05-10T18:18:57.689Z,8.02
2023-05-10T18:21:26.284Z,7.70
2023-05-10T18:23:54.810Z,6.82
2023-05-10T18:26:26.438Z,7.03
2023-05-10T18:28:55.076Z,7.13
2023-05-10T18:31:29.590Z,7.53
2023-05-10T18:33:59.346Z,7.82
2023-05-10T18:36:29.708Z,7.35
2023-05-10T18:38:59.647Z,7.75
2023-05-10T18:41:29.450Z,6.53
2023-05-10T18:44:03.288Z,8.45
2023-05-10T18:46:33.869Z,6.35
2023-05-10T18:49:02.767Z,6.20
2023-05-10T18:54:01.564Z,6.88
2023-05-10T18:56:34.854Z,6.15
2023-05-10T18:59:03.573Z,9.27
2023-05-10T19:01:40.335Z,7.65
2023-05-10T19:04:11.360Z,5.68
2023-05-10T19:06:41.696Z,7.05
2023-05-10T19:09:10.191Z,9.77
2023-05-10T19:11:38.580Z,6.35
2023-05-10T19:14:07.109Z,8.93
2023-05-10T19:16:37.051Z,11.02
2023-05-10T19:19:10.344Z,12.20
2023-05-10T19:21:39.016Z,10.75
2023-05-10T19:24:08.039Z,10.82
2023-05-10T19:26:37.385Z,10.52
2023-05-10T19:29:06.105Z,9.43
2023-05-10T19:36:38.177Z,9.63
2023-05-10T19:39:06.715Z,11.85
2023-05-10T19:41:35.333Z,8.75
2023-05-10T19:44:09.748Z,9.10
2023-05-10T19:46:40.959Z,13.18
2023-05-10T19:49:18.367Z,11.77
2023-05-10T19:51:48.850Z,11.75
2023-05-10T19:54:18.400Z,13.07
2023-05-10T19:56:46.815Z,13.05
2023-05-10T19:59:15.549Z,11.55
2023-05-10T20:01:46.998Z,14.18
2023-05-10T20:04:16.589Z,12.27
2023-05-10T20:06:45.527Z,13.95
2023-05-10T20:09:22.819Z,16.42
2023-05-10T20:11:53.931Z,13.10
2023-05-10T20:14:26.045Z,11.95
2023-05-10T20:16:56.726Z,10.77
2023-05-10T20:19:26.416Z,15.73
2023-05-10T20:21:58.799Z,12.13
2023-05-10T20:24:29.681Z,18.08
2023-05-10T20:26:58.971Z,13.93
2023-05-10T20:29:30.390Z,11.57
2023-05-10T20:31:59.958Z,12.80
2023-05-10T20:34:35.412Z,13.98
2023-05-10T20:37:04.154Z,13.70
2023-05-10T20:39:37.000Z,9.95
2023-05-10T20:42:06.313Z,11.35
2023-05-10T20:44:35.077Z,11.07
2023-05-10T20:47:06.827Z,9.90
2023-05-10T20:49:36.839Z,12.23
2023-05-10T20:52:10.555Z,13.82
2023-05-10T20:54:41.159Z,15.68
2023-05-10T20:57:14.216Z,13.02
2023-05-10T20:59:43.288Z,15.52
2023-05-10T21:02:18.588Z,12.77
2023-05-10T21:04:57.817Z,17.50
2023-05-10T21:07:27.490Z,16.75
2023-05-10T21:10:00.147Z,12.45
2023-05-10T21:12:29.328Z,17.83
2023-05-10T21:17:29.409Z,12.48
2023-05-10T21:19:58.305Z,13.20
2023-05-10T21:24:57.883Z,16.38
2023-05-10T21:27:27.042Z,14.07
2023-05-10T21:29:57.861Z,19.23
2023-05-10T21:32:27.413Z,14.48
2023-05-10T21:34:56.064Z,12.38
2023-05-10T21:37:27.810Z,12.15
2023-05-10T21:39:58.041Z,13.35
2023-05-10T21:42:29.220Z,15.05
2023-05-10T21:45:00.562Z,15.40
2023-05-10T21:47:29.108Z,10.55
2023-05-10T21:50:00.167Z,15.27
2023-05-10T21:52:28.824Z,13.40
2023-05-10T21:54:58.954Z,12.80
2023-05-10T21:57:29.344Z,11.15
2023-05-10T21:59:57.887Z,11.10
2023-05-10T22:02:26.847Z,16.65
2023-05-10T22:04:55.244Z,16.75
2023-05-10T22:07:24.267Z,10.80
2023-05-10T22:09:52.632Z,18.75
2023-05-10T22:12:22.524Z,13.98
2023-05-10T22:15:06.493Z,13.45
2023-05-10T22:17:39.726Z,11.98
2023-05-10T22:20:09.804Z,14.70
2023-05-10T22:22:38.541Z,12.20
2023-05-10T22:25:10.993Z,11.32
2023-05-10T22:27:40.897Z,11.77
2023-05-10T22:30:13.400Z,13.98
2023-05-10T22:32:41.969Z,9.65
2023-05-10T22:35:13.082Z,12.98
2023-05-10T22:37:41.773Z,10.15
2023-05-10T22:40:11.717Z,12.68
2023-05-10T22:42:41.501Z,15.82
2023-05-10T22:45:11.264Z,15.05
2023-05-10T22:47:39.857Z,13.93
2023-05-10T22:50:10.246Z,8.70
2023-05-10T22:52:39.524Z,12.50
2023-05-10T22:55:08.559Z,13.23
2023-05-10T22:57:37.490Z,13.98
2023-05-10T23:00:09.377Z,12.70
2023-05-10T23:02:37.937Z,13.20
2023-05-10T23:05:07.674Z,11.45
2023-05-10T23:07:36.213Z,11.85
2023-05-10T23:10:04.766Z,14.73
2023-05-10T23:12:34.188Z,19.83
2023-05-10T23:15:02.738Z,13.75
2023-05-10T23:17:33.688Z,16.40
2023-05-10T23:20:02.382Z,13.32
2023-05-10T23:22:31.748Z,15.20
2023-05-10T23:25:00.214Z,18.10
2023-05-10T23:27:30.649Z,20.30
2023-05-10T23:29:59.166Z,11.05
2023-05-10T23:32:27.596Z,17.13
2023-05-10T23:34:57.489Z,22.58
2023-05-10T23:37:25.990Z,18.02
2023-05-10T23:39:54.352Z,20.13
2023-05-10T23:42:22.857Z,17.63
2023-05-10T23:44:52.833Z,20.90
2023-05-10T23:47:21.321Z,25.58
2023-05-10T23:49:51.369Z,16.95
2023-05-10T23:52:24.908Z,19.67
2023-05-10T23:54:53.730Z,17.63
2023-05-10T23:57:22.160Z,16.02
2023-05-10T23:59:50.535Z,19.08
